Time;durP1;ratioP1;P1;durP2;ratioP2;P2;SDS_P1;SDS_P2;PMS_P1;PMS_P2;Temp;Humidity;BMP_temperature;BMP_pressure;BME280_temperature;BME280_humidity;BME280_pressure;Samples;Min_cycle;Max_cycle;Signal;HPM_P1;HPM_P2
2022/07/04 00:00:17;;;;;;;7.78;2.10;;;28.90;49.60;;;;;;5116403;28;20035;-66
2022/07/04 00:02:45;;;;;;;10.05;1.85;;;28.70;49.50;;;;;;5116573;28;20110;-67
2022/07/04 00:05:12;;;;;;;5.28;2.00;;;28.70;49.50;;;;;;5116241;28;20053;-66
2022/07/04 00:07:45;;;;;;;4.25;1.65;;;28.70;49.70;;;;;;5115897;28;20051;-67
2022/07/04 00:10:14;;;;;;;8.65;1.92;;;28.60;49.90;;;;;;5116297;27;20028;-67
2022/07/04 00:12:40;;;;;;;6.00;1.90;;;28.60;49.90;;;;;;5115938;28;20059;-68
2022/07/04 00:15:07;;;;;;;3.65;1.58;;;28.60;50.30;;;;;;5116370;28;20185;-67
2022/07/04 00:17:33;;;;;;;4.65;1.77;;;28.60;50.30;;;;;;5115776;28;20049;-67
2022/07/04 00:19:59;;;;;;;6.47;2.10;;;28.50;50.20;;;;;;5116097;28;20036;-67
2022/07/04 00:22:25;;;;;;;4.43;1.85;;;28.50;51.00;;;;;;5115982;28;20036;-67
2022/07/04 00:24:51;;;;;;;5.82;2.20;;;28.50;50.90;;;;;;5116039;28;20129;-67
2022/07/04 00:27:17;;;;;;;4.85;1.80;;;28.50;50.50;;;;;;5115651;28;20040;-67
2022/07/04 00:29:43;;;;;;;4.63;1.90;;;28.50;50.50;;;;;;5116198;28;20039;-67
2022/07/04 00:32:09;;;;;;;3.53;1.98;;;28.50;50.60;;;;;;5116092;28;20040;-67
2022/07/04 00:34:35;;;;;;;4.70;1.98;;;28.50;50.10;;;;;;5115856;28;20496;-67
2022/07/04 00:37:01;;;;;;;5.45;1.80;;;28.40;50.10;;;;;;5115280;28;20036;-67
2022/07/04 00:39:26;;;;;;;3.65;2.03;;;28.40;51.10;;;;;;5114888;28;20410;-67
2022/07/04 00:41:52;;;;;;;2.42;1.77;;;28.30;50.10;;;;;;5115458;28;20027;-67
2022/07/04 00:44:18;;;;;;;3.25;1.83;;;28.30;49.90;;;;;;5115773;28;20028;-67
2022/07/04 00:46:45;;;;;;;6.88;2.20;;;28.40;49.80;;;;;;5115522;28;20040;-66
2022/07/04 00:49:12;;;;;;;5.75;2.03;;;28.40;50.00;;;;;;5115705;28;20415;-66
2022/07/04 00:51:39;;;;;;;6.85;2.05;;;28.30;52.90;;;;;;5115390;28;20039;-68
2022/07/04 00:54:05;;;;;;;11.07;2.20;;;28.30;53.10;;;;;;5115186;28;20035;-67
2022/07/04 00:56:32;;;;;;;5.10;2.22;;;28.20;52.30;;;;;;5115359;28;20058;-67
2022/07/04 00:58:59;;;;;;;5.15;2.30;;;28.10;52.30;;;;;;5112919;28;20035;-67
2022/07/04 01:01:25;;;;;;;3.00;1.75;;;28.10;52.80;;;;;;5112700;27;20067;-68
2022/07/04 01:03:51;;;;;;;7.05;1.92;;;28.10;53.50;;;;;;5112714;27;20035;-67
2022/07/04 01:06:19;;;;;;;6.38;2.10;;;28.00;52.90;;;;;;5115044;28;20067;-67
2022/07/04 01:08:45;;;;;;;6.22;1.70;;;27.90;52.50;;;;;;5114883;28;20023;-67
2022/07/04 01:11:12;;;;;;;7.18;1.75;;;27.90;52.00;;;;;;5114730;28;20059;-66
2022/07/04 01:13:38;;;;;;;4.60;1.92;;;27.80;51.80;;;;;;5114880;28;20055;-67
2022/07/04 01:16:04;;;;;;;7.57;1.63;;;27.80;53.30;;;;;;5114765;28;20043;-67
2022/07/04 01:18:31;;;;;;;7.82;2.25;;;27.80;52.30;;;;;;5114856;28;20088;-67
2022/07/04 01:20:57;;;;;;;4.72;2.28;;;27.70;52.70;;;;;;5114667;28;20032;-68
2022/07/04 01:23:22;;;;;;;4.65;2.03;;;27.80;52.30;;;;;;5114618;28;20039;-67
2022/07/04 01:25:50;;;;;;;4.38;1.90;;;27.80;51.90;;;;;;5114552;28;20042;-66
2022/07/04 01:28:20;;;;;;;11.82;1.77;;;27.80;51.60;;;;;;5113822;28;20035;-67
2022/07/04 01:30:46;;;;;;;5.32;1.77;;;27.70;52.20;;;;;;5114668;28;20046;-68
2022/07/04 01:33:12;;;;;;;14.43;2.10;;;27.60;52.80;;;;;;5114529;28;20489;-67
2022/07/04 01:35:38;;;;;;;6.70;2.15;;;27.60;53.10;;;;;;5114435;28;20031;-68
2022/07/04 01:38:03;;;;;;;9.55;1.90;;;27.50;52.70;;;;;;5114544;27;20439;-67
2022/07/04 01:40:29;;;;;;;6.63;1.73;;;27.50;52.70;;;;;;5114577;28;20032;-66
2022/07/04 01:42:55;;;;;;;8.07;1.98;;;27.50;52.60;;;;;;5114452;28;20035;-67
2022/07/04 01:45:21;;;;;;;3.30;1.80;;;27.40;52.60;;;;;;5114633;28;20047;-67
2022/07/04 01:47:47;;;;;;;10.77;2.08;;;27.40;52.70;;;;;;5114043;28;20051;-68
2022/07/04 01:50:13;;;;;;;6.90;2.20;;;27.30;53.70;;;;;;5113246;28;20035;-67
2022/07/04 01:52:40;;;;;;;6.47;2.30;;;27.20;53.10;;;;;;5113045;28;20028;-67
2022/07/04 01:55:07;;;;;;;4.10;2.15;;;27.20;53.50;;;;;;5114013;28;20393;-67
2022/07/04 01:57:33;;;;;;;4.80;1.73;;;27.20;53.40;;;;;;5114199;28;20508;-67
2022/07/04 02:02:43;;;;;;;3.03;1.80;;;27.10;53.60;;;;;;5114317;28;20066;-67
2022/07/04 02:05:09;;;;;;;7.35;2.15;;;27.10;53.50;;;;;;5114090;28;20068;-67
2022/07/04 02:07:34;;;;;;;7.40;1.90;;;27.00;53.60;;;;;;5113798;28;20093;-67
2022/07/04 02:10:00;;;;;;;4.68;2.00;;;27.00;53.80;;;;;;5114076;28;20042;-67
2022/07/04 02:15:10;;;;;;;9.55;2.10;;;26.90;54.20;;;;;;5113892;28;20031;-67
2022/07/04 02:17:36;;;;;;;2.38;1.63;;;26.90;54.60;;;;;;5113601;28;20043;-66
2022/07/04 02:20:04;;;;;;;7.13;2.20;;;26.90;54.20;;;;;;5113847;28;20036;-67
2022/07/04 02:22:30;;;;;;;4.32;2.40;;;26.90;54.10;;;;;;5113892;28;20031;-67
2022/07/04 02:24:56;;;;;;;4.22;2.00;;;26.80;53.20;;;;;;5113924;28;20089;-67
2022/07/04 02:27:22;;;;;;;5.32;2.10;;;26.80;54.10;;;;;;5113822;28;20050;-67
2022/07/04 02:29:48;;;;;;;7.57;1.88;;;26.80;53.90;;;;;;5113484;28;20169;-67
2022/07/04 02:32:13;;;;;;;10.50;2.00;;;26.80;53.40;;;;;;5113492;28;20027;-67
2022/07/04 02:34:39;;;;;;;7.60;1.95;;;26.70;53.40;;;;;;5113851;28;20381;-67
2022/07/04 02:37:05;;;;;;;5.70;2.08;;;26.70;54.00;;;;;;5113837;28;20493;-67
2022/07/04 02:39:31;;;;;;;4.55;2.10;;;26.60;53.90;;;;;;5113427;28;20531;-66
2022/07/04 02:41:56;;;;;;;9.88;2.80;;;26.70;53.70;;;;;;5113166;28;20036;-67
2022/07/04 02:44:22;;;;;;;4.90;2.33;;;26.70;53.00;;;;;;5113371;28;20384;-67
2022/07/04 02:46:48;;;;;;;6.95;2.10;;;26.90;52.70;;;;;;5113286;28;20050;-68
2022/07/04 02:49:14;;;;;;;9.73;2.15;;;26.90;52.30;;;;;;5113147;28;20032;-67
2022/07/04 02:51:39;;;;;;;12.95;2.28;;;27.00;52.40;;;;;;5113303;28;20561;-67
2022/07/04 02:54:05;;;;;;;9.88;2.20;;;26.90;52.80;;;;;;5113366;28;20092;-67
2022/07/04 02:56:31;;;;;;;6.18;2.05;;;26.90;53.40;;;;;;5113509;28;20063;-67
2022/07/04 02:58:56;;;;;;;8.57;3.13;;;26.80;53.40;;;;;;5113115;28;20027;-67
2022/07/04 03:01:22;;;;;;;7.10;1.95;;;26.60;54.10;;;;;;5113104;28;20023;-66
2022/07/04 03:03:48;;;;;;;4.72;1.98;;;26.60;53.60;;;;;;5113246;28;20107;-66
2022/07/04 03:06:14;;;;;;;5.05;2.10;;;26.60;53.50;;;;;;5113314;28;20031;-67
2022/07/04 03:08:40;;;;;;;4.65;2.03;;;26.60;54.30;;;;;;5113187;28;20028;-67
2022/07/04 03:11:06;;;;;;;5.93;1.83;;;26.60;54.70;;;;;;5113357;28;20497;-67
2022/07/04 03:13:32;;;;;;;3.45;1.77;;;26.60;54.00;;;;;;5113218;28;20027;-67
2022/07/04 03:15:58;;;;;;;7.45;2.25;;;26.60;54.00;;;;;;5113071;28;20051;-67
2022/07/04 03:18:24;;;;;;;6.68;2.40;;;26.50;55.00;;;;;;5113194;28;20034;-67
2022/07/04 03:20:50;;;;;;;7.03;2.13;;;26.50;54.50;;;;;;5113231;28;20486;-67
2022/07/04 03:23:15;;;;;;;8.93;2.38;;;26.50;54.50;;;;;;5113046;28;20362;-67
2022/07/04 03:25:42;;;;;;;6.53;2.25;;;26.60;54.20;;;;;;5113090;28;20038;-67
2022/07/04 03:28:08;;;;;;;4.28;2.03;;;26.50;53.40;;;;;;5113006;28;20067;-67
2022/07/04 03:30:34;;;;;;;9.27;2.70;;;26.50;54.00;;;;;;5113121;28;20481;-67
2022/07/04 03:33:00;;;;;;;12.00;3.00;;;26.40;54.00;;;;;;5112948;28;20112;-67
2022/07/04 03:35:26;;;;;;;7.93;2.20;;;26.40;53.80;;;;;;5112704;28;20436;-67
2022/07/04 03:37:53;;;;;;;8.77;2.35;;;26.40;54.10;;;;;;5112686;28;20032;-65
2022/07/04 03:40:19;;;;;;;5.63;2.03;;;26.40;54.30;;;;;;5112891;28;20521;-67
2022/07/04 03:42:46;;;;;;;7.47;2.30;;;26.40;54.20;;;;;;5112942;28;20039;-67
2022/07/04 03:45:11;;;;;;;5.97;2.00;;;26.30;54.70;;;;;;5112898;28;20076;-67
2022/07/04 03:47:37;;;;;;;7.47;2.20;;;26.40;54.60;;;;;;5112525;28;20043;-67
2022/07/04 03:50:03;;;;;;;7.45;2.10;;;26.30;54.50;;;;;;5111410;28;20500;-67
2022/07/04 03:52:29;;;;;;;12.57;2.30;;;26.30;55.00;;;;;;5114843;28;20102;-67
2022/07/04 03:54:55;;;;;;;14.27;2.70;;;26.30;53.90;;;;;;5116746;28;20592;-67
2022/07/04 03:57:21;;;;;;;14.38;3.13;;;26.40;54.30;;;;;;5116742;28;20539;-67
2022/07/04 03:59:47;;;;;;;11.13;2.38;;;26.40;54.60;;;;;;5116569;28;20063;-67
2022/07/04 04:02:13;;;;;;;12.75;2.25;;;26.40;54.30;;;;;;5116574;28;20046;-66
2022/07/04 04:07:23;;;;;;;11.55;2.25;;;26.40;54.50;;;;;;5116469;28;20042;-66
2022/07/04 04:09:49;;;;;;;9.05;2.15;;;26.30;54.60;;;;;;5116143;28;20028;-67
2022/07/04 04:12:14;;;;;;;12.88;2.85;;;26.30;54.70;;;;;;5116095;28;20036;-67
2022/07/04 04:14:40;;;;;;;11.27;2.13;;;26.30;55.60;;;;;;5116097;28;20393;-67
2022/07/04 04:17:06;;;;;;;15.95;2.75;;;26.30;55.10;;;;;;5115917;27;20083;-67
2022/07/04 04:19:31;;;;;;;13.88;3.10;;;26.30;55.70;;;;;;5115985;28;20054;-67
2022/07/04 04:21:57;;;;;;;10.27;2.20;;;26.30;55.00;;;;;;5115765;28;20034;-67
2022/07/04 04:24:23;;;;;;;10.00;2.58;;;26.30;54.40;;;;;;5115884;28;20031;-67
2022/07/04 04:26:48;;;;;;;9.48;2.33;;;26.30;54.50;;;;;;5115700;28;20481;-67
2022/07/04 04:29:14;;;;;;;9.43;2.63;;;26.40;54.50;;;;;;5116396;28;20070;-67
2022/07/04 04:31:40;;;;;;;18.83;2.60;;;26.40;54.40;;;;;;5115642;28;20473;-67
2022/07/04 04:34:05;;;;;;;10.50;2.15;;;26.40;54.80;;;;;;5115774;28;20073;-67
2022/07/04 04:36:31;;;;;;;9.02;2.20;;;26.40;54.30;;;;;;5115836;28;20486;-67
2022/07/04 04:38:57;;;;;;;9.10;1.95;;;26.50;53.90;;;;;;5115805;28;20055;-67
2022/07/04 04:41:23;;;;;;;3.72;2.13;;;26.50;54.10;;;;;;5115738;28;20131;-66
2022/07/04 04:43:48;;;;;;;4.28;2.10;;;26.50;53.80;;;;;;5115540;28;20032;-67
2022/07/04 04:46:14;;;;;;;5.85;2.30;;;26.60;54.20;;;;;;5115795;28;20043;-67
2022/07/04 04:48:40;;;;;;;5.85;2.10;;;26.60;54.70;;;;;;5115383;28;20097;-67
2022/07/04 04:51:06;;;;;;;5.60;2.15;;;26.80;54.90;;;;;;5114723;28;20043;-67
2022/07/04 04:53:31;;;;;;;4.57;2.08;;;26.80;54.40;;;;;;5114864;28;20028;-67
2022/07/04 04:55:57;;;;;;;6.95;1.90;;;26.90;54.40;;;;;;5115107;28;20501;-67
2022/07/04 04:58:23;;;;;;;4.45;2.05;;;27.00;53.30;;;;;;5114514;28;20036;-68
2022/07/04 05:00:49;;;;;;;12.63;2.25;;;27.10;52.60;;;;;;5114422;28;20107;-67
2022/07/04 05:03:18;;;;;;;8.07;2.15;;;27.10;52.40;;;;;;5114083;28;20529;-67
2022/07/04 05:05:44;;;;;;;10.35;2.55;;;27.10;52.30;;;;;;5115253;28;20039;-67
2022/07/04 05:08:11;;;;;;;11.95;2.30;;;27.20;52.10;;;;;;5115297;28;20032;-66
2022/07/04 05:10:37;;;;;;;8.48;2.40;;;27.30;52.00;;;;;;5115047;28;20023;-67
2022/07/04 05:13:03;;;;;;;12.32;2.20;;;27.30;52.10;;;;;;5114734;28;20436;-67
2022/07/04 05:15:29;;;;;;;11.25;2.58;;;27.30;52.80;;;;;;5114974;28;20040;-67
2022/07/04 05:17:55;;;;;;;5.97;2.35;;;27.30;53.30;;;;;;5115233;28;20057;-67
2022/07/04 05:20:21;;;;;;;11.60;2.10;;;27.40;53.40;;;;;;5114328;28;20053;-67
2022/07/04 05:22:46;;;;;;;7.35;2.25;;;27.40;52.60;;;;;;5115039;28;20110;-67
2022/07/04 05:25:12;;;;;;;13.02;2.17;;;27.40;52.50;;;;;;5115048;28;20053;-68
2022/07/04 05:27:38;;;;;;;8.27;2.55;;;27.50;52.40;;;;;;5114372;28;20426;-67
2022/07/04 05:30:04;;;;;;;14.25;2.20;;;27.50;52.40;;;;;;5114712;28;20031;-67
2022/07/04 05:32:30;;;;;;;9.05;2.15;;;27.50;52.60;;;;;;5115010;27;20038;-67
2022/07/04 05:34:56;;;;;;;10.85;2.22;;;27.50;52.40;;;;;;5114967;28;20555;-67
2022/07/04 05:37:22;;;;;;;19.33;2.38;;;27.50;52.20;;;;;;5114773;28;20036;-68
2022/07/04 05:39:48;;;;;;;8.75;2.75;;;27.60;52.20;;;;;;5114709;28;20035;-67
2022/07/04 05:42:14;;;;;;;7.93;2.55;;;27.60;52.70;;;;;;5114927;28;20035;-67
2022/07/04 05:44:40;;;;;;;7.10;2.70;;;27.60;51.90;;;;;;5114442;28;20529;-67
2022/07/04 05:47:06;;;;;;;10.18;2.40;;;27.70;51.10;;;;;;5114250;28;20058;-67
2022/07/04 05:49:32;;;;;;;11.07;2.00;;;27.70;51.10;;;;;;5114532;27;20389;-67
2022/07/04 05:51:57;;;;;;;12.70;2.83;;;27.80;50.90;;;;;;5114258;28;20044;-67
2022/07/04 05:54:23;;;;;;;6.10;1.95;;;27.80;50.60;;;;;;5114316;28;20076;-67
2022/07/04 05:56:49;;;;;;;7.63;1.40;;;27.90;50.40;;;;;;5114023;28;20040;-67
2022/07/04 05:59:15;;;;;;;6.85;1.70;;;27.90;50.10;;;;;;5114625;28;20032;-68
2022/07/04 06:01:41;;;;;;;3.60;1.42;;;28.00;49.60;;;;;;5114599;28;20116;-67
2022/07/04 06:04:07;;;;;;;8.82;1.50;;;28.10;49.20;;;;;;5114223;28;20500;-68
2022/07/04 06:06:34;;;;;;;4.82;1.50;;;28.20;49.70;;;;;;5114215;28;20047;-67
2022/07/04 06:09:00;;;;;;;5.43;1.35;;;28.20;48.30;;;;;;5114112;28;20508;-67
2022/07/04 06:11:26;;;;;;;5.90;1.75;;;28.30;48.10;;;;;;5114372;28;20048;-67
2022/07/04 06:13:52;;;;;;;3.50;1.63;;;28.40;48.10;;;;;;5114272;28;20036;-67
2022/07/04 06:16:18;;;;;;;4.97;1.70;;;28.40;48.30;;;;;;5113758;28;20378;-67
2022/07/04 06:18:44;;;;;;;13.43;2.00;;;28.40;48.10;;;;;;5113959;28;20128;-67
2022/07/04 06:21:10;;;;;;;9.95;1.92;;;28.40;48.00;;;;;;5114069;28;20032;-67
2022/07/04 06:23:36;;;;;;;5.05;1.75;;;28.50;47.90;;;;;;5113883;28;20084;-67
2022/07/04 06:26:02;;;;;;;6.70;1.63;;;28.50;47.60;;;;;;5113738;28;20035;-67
2022/07/04 06:28:29;;;;;;;7.45;1.75;;;28.50;47.40;;;;;;5113636;28;20509;-67
2022/07/04 06:30:55;;;;;;;7.18;1.70;;;28.60;47.60;;;;;;5114135;28;20036;-67
2022/07/04 06:33:20;;;;;;;4.95;1.80;;;28.70;47.60;;;;;;5113914;28;20039;-67
2022/07/04 06:35:49;;;;;;;14.35;1.75;;;28.70;47.90;;;;;;5113758;28;20115;-69
2022/07/04 06:38:19;;;;;;;8.30;2.28;;;28.80;48.40;;;;;;5113316;28;20115;-69
2022/07/04 06:40:46;;;;;;;5.60;1.87;;;28.90;48.60;;;;;;5113786;28;20401;-76
2022/07/04 06:43:12;;;;;;;7.75;2.20;;;29.00;48.80;;;;;;5113510;28;20445;-66
2022/07/04 06:45:38;;;;;;;6.00;2.10;;;29.00;48.90;;;;;;5113494;28;20030;-67
2022/07/04 06:48:05;;;;;;;9.70;1.90;;;29.00;48.70;;;;;;5113272;28;20040;-68
2022/07/04 06:50:32;;;;;;;16.33;2.80;;;29.10;48.70;;;;;;5113495;28;20028;-67
2022/07/04 06:52:59;;;;;;;8.90;1.92;;;29.10;48.00;;;;;;5113377;28;20161;-67
2022/07/04 06:55:25;;;;;;;11.77;3.80;;;29.10;48.20;;;;;;5113003;28;20035;-67
2022/07/04 06:57:51;;;;;;;10.48;2.75;;;29.20;48.60;;;;;;5113390;28;20032;-67
2022/07/04 07:00:17;;;;;;;7.53;2.10;;;29.20;48.60;;;;;;5113352;28;20040;-69
2022/07/04 07:02:43;;;;;;;5.90;2.40;;;29.30;48.70;;;;;;5113183;28;20085;-68
2022/07/04 07:05:08;;;;;;;9.98;2.55;;;29.40;48.20;;;;;;5113219;28;20039;-67
2022/07/04 07:07:34;;;;;;;4.55;1.80;;;29.40;47.80;;;;;;5113044;28;20497;-67
2022/07/04 07:10:02;;;;;;;6.43;2.13;;;29.40;47.40;;;;;;5113262;28;20035;-68
2022/07/04 07:12:28;;;;;;;5.15;2.08;;;29.50;47.30;;;;;;5113203;28;20071;-67
2022/07/04 07:14:54;;;;;;;6.07;1.92;;;29.60;47.40;;;;;;5113113;28;20102;-68
2022/07/04 07:17:20;;;;;;;8.35;1.90;;;29.60;46.80;;;;;;5113126;28;20140;-68
2022/07/04 07:19:46;;;;;;;6.40;2.28;;;29.70;46.70;;;;;;5112680;28;20039;-68
2022/07/04 07:22:13;;;;;;;4.15;1.92;;;29.70;46.90;;;;;;5113567;28;20043;-68
2022/07/04 07:24:39;;;;;;;10.50;2.40;;;29.80;46.60;;;;;;5110242;28;20393;-69
2022/07/04 07:27:05;;;;;;;6.35;2.22;;;29.80;46.40;;;;;;5111621;28;20095;-68
2022/07/04 07:29:31;;;;;;;6.60;2.20;;;30.00;46.50;;;;;;5114818;28;20024;-69
2022/07/04 07:31:57;;;;;;;4.32;1.70;;;30.00;46.50;;;;;;5117021;28;20039;-68
2022/07/04 07:34:23;;;;;;;6.03;2.20;;;30.10;46.50;;;;;;5116495;28;20505;-67
2022/07/04 07:36:49;;;;;;;7.75;3.00;;;30.10;46.40;;;;;;5117216;28;20039;-68
2022/07/04 07:39:15;;;;;;;5.95;2.17;;;30.20;46.20;;;;;;5116666;28;20027;-67
2022/07/04 07:41:40;;;;;;;11.90;2.28;;;30.30;46.60;;;;;;5116919;28;20120;-68
2022/07/04 07:44:06;;;;;;;8.88;2.00;;;30.30;46.40;;;;;;5116211;28;20038;-68
2022/07/04 07:46:32;;;;;;;6.88;2.40;;;30.40;45.90;;;;;;5113618;28;20344;-68
2022/07/04 07:48:58;;;;;;;8.70;1.95;;;30.40;46.10;;;;;;5113806;28;20554;-68
2022/07/04 07:51:24;;;;;;;9.07;1.90;;;30.50;45.70;;;;;;5116469;28;20032;-69
2022/07/04 07:53:50;;;;;;;4.90;2.20;;;30.60;45.80;;;;;;5116714;27;20031;-67
2022/07/04 07:56:15;;;;;;;6.63;2.13;;;30.70;45.70;;;;;;5116733;28;20043;-68
2022/07/04 07:58:41;;;;;;;11.77;2.20;;;30.70;45.20;;;;;;5115965;28;20529;-67
2022/07/04 08:01:07;;;;;;;4.93;2.05;;;30.80;45.30;;;;;;5114919;28;20042;-68
2022/07/04 08:06:17;;;;;;;8.20;2.20;;;30.90;44.30;;;;;;5115421;28;20535;-69
2022/07/04 08:08:43;;;;;;;12.02;2.97;;;31.00;44.60;;;;;;5116378;28;20039;-68
2022/07/04 08:11:10;;;;;;;8.20;1.98;;;31.00;44.50;;;;;;5116371;28;20420;-68
2022/07/04 08:13:36;;;;;;;10.82;2.50;;;31.10;44.10;;;;;;5116380;28;20043;-69
2022/07/04 08:16:03;;;;;;;9.80;2.35;;;31.20;44.30;;;;;;5115829;28;20074;-68
2022/07/04 08:18:28;;;;;;;8.55;2.63;;;31.30;43.40;;;;;;5116452;28;20131;-68
2022/07/04 08:20:54;;;;;;;4.75;2.35;;;31.30;42.50;;;;;;5115893;28;20480;-68
2022/07/04 08:23:20;;;;;;;9.45;2.33;;;31.40;42.60;;;;;;5116317;28;20019;-68
2022/07/04 08:25:46;;;;;;;5.32;2.08;;;31.40;42.00;;;;;;5116354;28;20389;-66
2022/07/04 08:28:12;;;;;;;7.50;2.03;;;31.50;42.60;;;;;;5116093;28;20059;-68
2022/07/04 08:30:38;;;;;;;6.75;1.98;;;31.60;42.10;;;;;;5116159;28;20038;-69
2022/07/04 08:33:03;;;;;;;7.88;2.10;;;31.70;41.00;;;;;;5115966;28;20042;-68
2022/07/04 08:35:29;;;;;;;4.65;1.80;;;31.80;40.40;;;;;;5116019;28;20053;-68
2022/07/04 08:37:55;;;;;;;6.95;2.00;;;31.90;40.30;;;;;;5114961;28;20038;-69
2022/07/04 08:40:26;;;;;;;7.03;1.95;;;32.00;40.50;;;;;;5115519;28;20028;-68
2022/07/04 08:42:52;;;;;;;8.68;2.05;;;32.00;38.10;;;;;;5115748;28;20063;-68
2022/07/04 08:45:27;;;;;;;8.73;2.13;;;32.10;37.10;;;;;;5115417;28;20039;-68
2022/07/04 08:48:00;;;;;;;8.63;2.20;;;32.20;37.00;;;;;;5115495;28;20036;-68
2022/07/04 08:50:31;;;;;;;7.03;1.95;;;32.30;36.90;;;;;;5115140;28;20115;-74
2022/07/04 08:53:01;;;;;;;;;;;32.40;34.90;;;;;;5115412;27;20035;-68
2022/07/04 08:58:26;;;;;;;7.50;2.40;;;32.50;35.70;;;;;;5114722;28;20062;-68
2022/07/04 09:00:53;;;;;;;7.75;1.90;;;32.60;36.90;;;;;;5115506;28;20059;-68
2022/07/04 09:03:19;;;;;;;10.93;2.00;;;;;;;;;;5115539;27;20103;-68
2022/07/04 09:05:45;;;;;;;5.57;2.10;;;;;;;;;;5115363;28;20066;-68
2022/07/04 09:08:12;;;;;;;15.77;2.08;;;;;;;;;;5114582;28;20089;-66
2022/07/04 09:10:38;;;;;;;5.20;1.90;;;32.70;36.00;;;;;;5114771;28;20032;-66
2022/07/04 09:13:08;;;;;;;4.25;1.50;;;;;;;;;;5114472;28;20542;-66
2022/07/04 09:15:34;;;;;;;6.88;2.00;;;33.00;35.80;;;;;;5114570;28;20035;-66
2022/07/04 09:18:01;;;;;;;9.38;1.98;;;33.20;35.10;;;;;;5115190;28;20078;-66
2022/07/04 09:20:28;;;;;;;10.15;2.05;;;33.30;35.80;;;;;;5115168;28;20043;-66
2022/07/04 09:22:54;;;;;;;9.70;2.22;;;33.30;35.50;;;;;;5115085;28;20067;-68
2022/07/04 09:25:22;;;;;;;5.70;1.85;;;33.40;35.60;;;;;;5113399;28;20393;-66
2022/07/04 09:27:50;;;;;;;11.48;2.08;;;33.40;36.10;;;;;;5114945;28;20405;-66
2022/07/04 09:30:21;;;;;;;9.95;1.95;;;33.50;35.80;;;;;;5114443;27;20542;-67
2022/07/04 09:32:47;;;;;;;;;;;33.60;35.10;;;;;;5115224;28;20382;-67
2022/07/04 09:35:17;;;;;;;6.22;1.75;;;33.70;35.00;;;;;;5114366;28;19969;-66
2022/07/04 09:37:46;;;;;;;6.28;1.70;;;33.80;34.40;;;;;;5114524;28;20069;-66
2022/07/04 09:40:28;;;;;;;8.77;2.13;;;33.90;34.20;;;;;;5114706;28;20028;-63
2022/07/04 09:42:55;;;;;;;7.55;2.00;;;33.90;33.80;;;;;;5114602;28;20607;-70
2022/07/04 09:45:23;;;;;;;4.10;1.95;;;33.90;34.40;;;;;;5114421;28;20473;-67
2022/07/04 09:47:52;;;;;;;10.05;2.08;;;33.90;33.70;;;;;;5112708;28;20042;-71
2022/07/04 09:50:20;;;;;;;9.18;1.98;;;34.00;33.20;;;;;;5112361;27;20477;-72
2022/07/04 09:52:52;;;;;;;8.40;2.20;;;34.10;33.50;;;;;;5114403;28;20027;-72
2022/07/04 09:55:39;;;;;;;8.70;2.10;;;34.10;33.20;;;;;;5114482;28;20525;-71
2022/07/04 09:58:11;;;;;;;7.95;1.70;;;34.20;33.10;;;;;;5114501;28;20031;-72
2022/07/04 10:00:39;;;;;;;5.80;1.75;;;34.20;34.00;;;;;;5114378;28;20096;-71
2022/07/04 10:03:22;;;;;;;7.88;1.95;;;34.30;32.80;;;;;;5113830;28;20533;-71
2022/07/04 10:06:05;;;;;;;14.40;1.63;;;34.40;33.20;;;;;;5114128;28;20092;-72
2022/07/04 10:08:32;;;;;;;6.35;1.92;;;34.50;32.80;;;;;;5113962;28;20504;-72
2022/07/04 10:11:02;;;;;;;10.73;1.77;;;34.60;32.00;;;;;;5113899;28;20033;-72
2022/07/04 10:13:27;;;;;;;6.32;1.95;;;34.70;32.60;;;;;;5113784;28;20131;-72
2022/07/04 10:15:54;;;;;;;4.95;1.80;;;34.70;31.70;;;;;;5113805;28;20110;-73
2022/07/04 10:18:21;;;;;;;5.45;1.60;;;34.70;33.30;;;;;;5114044;28;20041;-72
2022/07/04 10:20:51;;;;;;;9.88;1.90;;;34.80;32.60;;;;;;5113949;28;20401;-73
2022/07/04 10:23:18;;;;;;;9.80;2.20;;;34.80;33.20;;;;;;5113780;28;20032;-73
2022/07/04 10:25:51;;;;;;;7.78;1.85;;;34.90;33.10;;;;;;5114432;28;20036;-73
2022/07/04 10:28:18;;;;;;;4.95;1.60;;;35.00;33.00;;;;;;5113600;28;20066;-74
2022/07/04 10:30:48;;;;;;;9.43;1.60;;;35.00;33.50;;;;;;5113634;28;20024;-73
2022/07/04 10:33:15;;;;;;;7.63;1.83;;;35.10;32.20;;;;;;5113545;28;20456;-74
2022/07/04 10:35:57;;;;;;;11.52;2.30;;;35.10;32.80;;;;;;5113619;28;20080;-74
2022/07/04 10:38:34;;;;;;;4.43;1.80;;;35.10;32.80;;;;;;5113757;28;20035;-74
2022/07/04 10:41:05;;;;;;;14.38;1.88;;;35.20;32.10;;;;;;5113238;28;20055;-75
2022/07/04 10:43:33;;;;;;;6.43;1.75;;;35.10;32.60;;;;;;5113586;28;20028;-73
2022/07/04 10:46:02;;;;;;;4.47;1.83;;;35.10;32.80;;;;;;5113183;28;20047;-74
2022/07/04 10:48:29;;;;;;;4.53;1.75;;;35.00;33.00;;;;;;5113605;28;20067;-75
2022/07/04 10:51:05;;;;;;;6.38;1.75;;;35.00;34.30;;;;;;5112063;28;20032;-75
2022/07/04 10:53:33;;;;;;;8.07;2.30;;;35.00;34.60;;;;;;5113496;28;20040;-73
2022/07/04 10:56:17;;;;;;;6.32;2.15;;;35.10;33.40;;;;;;5113466;28;20070;-75
2022/07/04 10:58:43;;;;;;;14.32;2.30;;;35.10;34.40;;;;;;5113401;28;20030;-73
2022/07/04 11:01:16;;;;;;;5.68;1.98;;;35.10;33.10;;;;;;5112545;28;20036;-74
2022/07/04 11:03:49;;;;;;;4.93;1.98;;;35.20;33.70;;;;;;5113393;28;20028;-74
2022/07/04 11:06:32;;;;;;;5.93;1.98;;;35.20;33.90;;;;;;5113091;28;20036;-73
2022/07/04 11:09:16;;;;;;;7.57;2.05;;;35.20;33.40;;;;;;5112988;28;20497;-74
2022/07/04 11:11:51;;;;;;;10.63;2.20;;;35.30;33.90;;;;;;5113133;28;20032;-74
2022/07/04 11:14:43;;;;;;;6.20;1.73;;;35.30;33.10;;;;;;5113102;28;20039;-75
2022/07/04 11:17:14;;;;;;;12.88;2.28;;;35.30;33.50;;;;;;5112840;28;20043;-74
2022/07/04 11:19:41;;;;;;;;;;;35.40;33.30;;;;;;5113825;28;20035;-74
2022/07/04 11:22:09;;;;;;;10.05;2.13;;;35.50;33.40;;;;;;5113430;28;20033;-74
2022/07/04 11:24:36;;;;;;;9.18;2.08;;;35.50;34.10;;;;;;5113260;28;20064;-73
2022/07/04 11:27:02;;;;;;;5.38;2.58;;;35.50;34.10;;;;;;5112915;28;20568;-74
2022/07/04 11:29:29;;;;;;;7.72;2.05;;;35.50;33.40;;;;;;5113060;28;20062;-74
2022/07/04 11:31:56;;;;;;;7.85;2.13;;;35.50;33.20;;;;;;5112791;28;20516;-73
2022/07/04 11:34:23;;;;;;;6.95;1.92;;;35.60;33.30;;;;;;5112873;28;20032;-73
2022/07/04 11:36:50;;;;;;;5.35;1.75;;;35.60;33.40;;;;;;5112765;28;20515;-73
2022/07/04 11:39:21;;;;;;;9.45;1.95;;;35.60;33.10;;;;;;5112914;28;20393;-74
2022/07/04 11:47:31;;;;;;;10.45;2.30;;;35.70;33.50;;;;;;5109832;28;20061;-74
2022/07/04 11:50:00;;;;;;;7.20;2.20;;;35.80;33.60;;;;;;5112278;28;20035;-73
2022/07/04 11:52:42;;;;;;;6.88;2.22;;;35.80;33.40;;;;;;5112431;28;20510;-72
2022/07/04 11:55:17;;;;;;;5.47;1.85;;;35.80;33.90;;;;;;5112941;28;20039;-72
2022/07/04 11:57:50;;;;;;;13.65;2.38;;;35.90;32.60;;;;;;5109899;28;20032;-73
2022/07/04 12:00:18;;;;;;;7.32;2.10;;;35.90;32.00;;;;;;5109666;28;20035;-72
2022/07/04 12:02:47;;;;;;;6.82;2.00;;;35.90;31.60;;;;;;5111257;28;20043;-73
2022/07/04 12:05:13;;;;;;;5.30;1.90;;;36.00;32.60;;;;;;5112529;28;20028;-73
2022/07/04 12:07:44;;;;;;;9.15;2.00;;;36.00;32.70;;;;;;5112396;28;20044;-72
2022/07/04 12:10:24;;;;;;;9.20;2.20;;;36.00;31.40;;;;;;5112782;28;20048;-73
2022/07/04 12:12:54;;;;;;;5.18;1.85;;;36.00;31.90;;;;;;5113736;28;20508;-72
2022/07/04 12:15:21;;;;;;;7.25;1.77;;;35.90;31.00;;;;;;5116093;28;20027;-74
2022/07/04 12:17:54;;;;;;;7.45;2.10;;;35.90;31.60;;;;;;5116222;28;20421;-73
2022/07/04 12:20:22;;;;;;;5.65;1.63;;;35.90;31.90;;;;;;5116301;28;20497;-73
2022/07/04 12:22:54;;;;;;;5.78;1.58;;;35.80;31.90;;;;;;5115777;28;20566;-72
2022/07/04 12:25:47;;;;;;;6.90;1.80;;;35.80;32.00;;;;;;5116164;28;20059;-72
2022/07/04 12:28:14;;;;;;;4.38;1.70;;;35.80;31.90;;;;;;5113261;28;20118;-73
2022/07/04 12:30:49;;;;;;;4.78;1.70;;;35.80;31.70;;;;;;5113746;27;20039;-73
2022/07/04 12:33:19;;;;;;;7.53;2.15;;;35.80;31.70;;;;;;5113142;27;20072;-73
2022/07/04 12:35:47;;;;;;;10.18;2.47;;;35.80;31.80;;;;;;5113172;28;20043;-73
2022/07/04 12:38:15;;;;;;;6.88;2.10;;;35.80;31.10;;;;;;5115487;28;20043;-73
2022/07/04 12:40:51;;;;;;;3.97;1.60;;;35.80;31.50;;;;;;5115526;28;20131;-74
2022/07/04 12:43:17;;;;;;;11.55;1.90;;;35.80;32.10;;;;;;5115377;27;20539;-74
2022/07/04 12:45:53;;;;;;;6.97;1.77;;;35.80;31.50;;;;;;5114920;28;20038;-73
2022/07/04 12:48:27;;;;;;;4.85;1.88;;;35.80;31.50;;;;;;5113063;27;20047;-74
2022/07/04 12:50:55;;;;;;;7.55;2.13;;;35.90;32.00;;;;;;5112295;27;20028;-74
2022/07/04 12:53:21;;;;;;;4.85;2.00;;;35.80;31.90;;;;;;5114976;28;20038;-73
2022/07/04 12:55:49;;;;;;;7.53;2.63;;;35.90;31.90;;;;;;5114863;28;20032;-74
2022/07/04 12:58:15;;;;;;;6.25;2.53;;;35.90;32.30;;;;;;5113427;28;20077;-74
2022/07/04 13:00:41;;;;;;;7.28;1.80;;;35.90;31.60;;;;;;5112312;28;20059;-74
2022/07/04 13:03:08;;;;;;;4.35;1.75;;;35.90;32.00;;;;;;5113081;28;20027;-73
2022/07/04 13:05:35;;;;;;;5.93;1.88;;;36.00;32.40;;;;;;5115224;28;20493;-74
2022/07/04 13:08:02;;;;;;;3.03;1.55;;;36.00;31.30;;;;;;5114557;28;20055;-73